Adak, AK

12:04 PM HDT on May 25, 2015 (GMT -0900)
Adak | | Change Station
CLOSE
Current Station
Airport
Location: Adak,
Elevation: 13 ft
Nearby Weather Stations

Elev 13 ft 51.88 °N, 176.65 °W | Updated 8 minutes ago

Overcast
Overcast
45 °F
Feels Like 37 °F
N
16
Wind Variable Wind from South
Gusts 23 mph

Today
High -- | Low -- °F
--% Chance of Precip.
Yesterday
High -- | Low -- °F
Precip. -- in
6:39 AM 10:48 PM
First Quarter, 51% visible
Pressure 29.41 in
Visibility 3.0 miles
Clouds Overcast 1400 ft
Windchill 37 °F
Dew Point 39 °F
Humidity 81%
Rainfall 0.12 in
Snow Depth Not available.
UV 2 out of 12
Pollen Not available.
Air Quality Not available.
Flu Activity Local Activity
METAR PADK 252056Z 19014G20KT 3SM OVC014 07/04 A2941 RMK AO1 57027

More Conditions Fewer Conditions

Pressure 29.41 in
Visibility 3.0 miles
Clouds Overcast 1400 ft
Windchill 37 °F
Dew Point 39 °F
Humidity 81%
Rainfall 0.12 in
Snow Depth Not available.
UV 2 out of 12
Pollen Not available.
Air Quality Not available.
Flu Activity Local Activity
METAR PADK 252056Z 19014G20KT 3SM OVC014 07/04 A2941 RMK AO1 57027

More Conditions Fewer Conditions

10-Day Weather Forecast

Almanac

Astronomy

May. 25, 2015 Rise Set
Actual Time
Civil Twilight
Nautical Twilight
Astronomical Twilight
Moon
Length of Visible Light
Length of Day
Tomorrow will be .
, % of the Moon is Illuminated

Today's Extremes

State Highs State Lows

Community

WunderPhotos

Upload Photos

1,824,129 photos uploaded!

WunderBlogs® & News

Nearby

Air Quality

  Air Quality AQ Index Pollutant
Not available.

Snow Depth

Station Depth Elevation

Earthquake Activity

City Distance Mag. Time & Date
Minimum magnitude displayed is 2.5.

Coastal Water Temperatures

Place Temperature

Stations

Nearby Weather Stations

Station Location Temp. Windchill Dew Point Humidity Wind Precip. Elev Updated Type